Time;durP1;ratioP1;P1;durP2;ratioP2;P2;SDS_P1;SDS_P2;PMS_P1;PMS_P2;Temp;Humidity;BMP_temperature;BMP_pressure;BME280_temperature;BME280_humidity;BME280_pressure;Samples;Min_cycle;Max_cycle;Signal;HPM_P1;HPM_P2
2023/08/12 05:15:13;;;;;;;34.28;18.60;;;;;;;21.92;71.58;99773.28;5049793;23;20066;-89
2023/08/12 05:17:39;;;;;;;35.85;17.60;;;;;;;21.81;71.87;99769.53;4919160;29;20058;-89
2023/08/12 05:20:17;;;;;;;35.08;18.88;;;;;;;21.75;71.76;99765.47;4941007;29;20032;-89
2023/08/12 05:22:48;;;;;;;35.30;19.60;;;;;;;21.90;72.80;99802.69;4953392;28;20035;-90
2023/08/12 05:25:14;;;;;;;34.55;19.48;;;;;;;21.79;72.71;99774.72;4915595;29;20039;-89
2023/08/12 05:28:08;;;;;;;38.25;18.50;;;;;;;21.88;72.42;99768.84;4958272;29;20031;-90
2023/08/12 05:30:55;;;;;;;32.88;19.15;;;;;;;21.87;72.04;99750.53;4975568;28;20023;-89
2023/08/12 05:33:33;;;;;;;30.38;18.23;;;;;;;21.78;72.08;99720.22;4939398;29;20044;-90
2023/08/12 05:36:10;;;;;;;37.33;18.90;;;;;;;21.94;71.71;99709.66;4919905;29;20047;-91
2023/08/12 05:38:37;;;;;;;37.67;18.80;;;;;;;21.84;71.00;99688.06;4937415;29;20059;-90
2023/08/12 05:41:07;;;;;;;46.58;19.58;;;;;;;21.99;70.63;99700.19;4935027;29;20078;-88
2023/08/12 05:43:33;;;;;;;53.05;20.58;;;;;;;21.97;70.62;99681.06;4946779;29;20039;-89
2023/08/12 05:45:59;;;;;;;;;;;;;;;22.06;71.17;99686.34;4935447;29;20046;-88
2023/08/12 05:48:26;;;;;;;31.85;18.42;;;;;;;22.01;70.29;99675.53;4924439;29;19922;-89
2023/08/12 05:50:52;;;;;;;212.68;27.95;;;;;;;22.08;70.22;99695.09;4899670;29;20536;-91
2023/08/12 05:53:19;;;;;;;42.25;18.33;;;;;;;22.02;67.45;99677.97;4929438;29;20040;-91
2023/08/12 05:55:45;;;;;;;42.72;18.15;;;;;;;22.12;68.04;99670.91;4914116;29;20106;-90
2023/08/12 05:58:11;;;;;;;31.63;16.27;;;;;;;22.16;66.72;99682.91;4945562;29;20135;-91
2023/08/12 06:00:37;;;;;;;34.87;17.97;;;;;;;22.19;67.12;99673.78;4947959;29;20043;-90
2023/08/12 06:03:04;;;;;;;39.13;16.25;;;;;;;22.31;66.11;99680.25;4913589;29;20035;-89
2023/08/12 06:05:30;;;;;;;34.28;15.63;;;;;;;22.27;65.96;99666.28;4934083;28;20040;-88
2023/08/12 06:07:56;;;;;;;34.25;16.85;;;;;;;22.36;66.29;99668.78;4956124;29;20046;-90
2023/08/12 06:10:22;;;;;;;28.98;16.85;;;;;;;22.34;66.55;99671.91;4933828;29;20032;-88
2023/08/12 06:12:48;;;;;;;45.28;16.35;;;;;;;22.48;66.47;99691.56;4951612;29;20043;-89
2023/08/12 06:15:26;;;;;;;34.28;17.77;;;;;;;22.45;66.75;99683.16;4935407;29;20059;-89
2023/08/12 06:17:52;;;;;;;45.85;17.90;;;;;;;22.43;66.77;99680.78;4934198;29;20138;-88
2023/08/12 06:20:18;;;;;;;36.47;18.83;;;;;;;22.43;66.46;99674.41;4935887;29;20059;-90
2023/08/12 06:22:45;;;;;;;45.15;19.10;;;;;;;22.47;66.95;99678.81;4935762;29;20036;-90
2023/08/12 06:25:11;;;;;;;47.22;18.73;;;;;;;22.47;66.48;99669.66;4935818;29;20087;-89
2023/08/12 06:27:37;;;;;;;33.65;18.23;;;;;;;22.58;67.11;99692.03;4918683;29;20035;-90
2023/08/12 06:30:04;;;;;;;36.05;18.35;;;;;;;22.59;67.36;99694.44;4933379;29;20043;-89
2023/08/12 06:32:30;;;;;;;36.95;18.13;;;;;;;22.58;67.42;99684.47;4918689;29;20051;-90
2023/08/12 06:34:57;;;;;;;40.90;17.75;;;;;;;22.73;67.06;99710.47;4924376;29;20064;-89
2023/08/12 06:37:33;;;;;;;49.95;17.73;;;;;;;22.74;66.88;99700.94;4904511;29;20070;-89
2023/08/12 06:40:01;;;;;;;30.45;17.38;;;;;;;22.73;66.16;99693.75;4927672;29;20075;-90
2023/08/12 06:42:27;;;;;;;26.17;15.77;;;;;;;22.85;65.13;99701.03;4940438;29;20046;-91
2023/08/12 06:45:00;;;;;;;79.68;18.55;;;;;;;23.06;65.52;99711.56;4922370;29;20040;-91
2023/08/12 06:47:27;;;;;;;37.00;16.50;;;;;;;23.16;64.80;99694.91;4939581;29;20044;-92
2023/08/12 06:49:55;;;;;;;31.40;16.60;;;;;;;23.30;65.07;99701.75;4920079;29;20036;-91
2023/08/12 06:52:21;;;;;;;35.05;17.80;;;;;;;23.39;64.69;99718.94;4904852;29;20056;-89
2023/08/12 06:54:48;;;;;;;47.05;18.92;;;;;;;23.37;64.91;99697.00;4921704;29;20037;-89
2023/08/12 06:57:14;;;;;;;35.60;18.60;;;;;;;23.29;64.79;99689.78;4903584;29;20043;-89
2023/08/12 06:59:40;;;;;;;46.75;20.48;;;;;;;23.39;64.80;99693.84;4937570;29;20047;-89
2023/08/12 07:02:07;;;;;;;45.67;23.05;;;;;;;23.43;64.86;99697.44;4907003;29;20050;-89
2023/08/12 07:04:49;;;;;;;35.15;19.20;;;;;;;23.31;63.73;99667.06;4932091;29;20107;-89
2023/08/12 07:07:17;;;;;;;37.28;17.63;;;;;;;23.37;64.04;99676.69;4937609;29;20039;-89
2023/08/12 07:09:43;;;;;;;40.03;18.55;;;;;;;23.49;64.39;99672.75;4915846;29;20145;-88
2023/08/12 07:12:09;;;;;;;34.28;17.83;;;;;;;23.54;64.48;99678.78;4949230;29;20487;-88
2023/08/12 07:14:36;;;;;;;32.20;19.17;;;;;;;23.67;63.22;99682.81;4929442;29;20078;-89
2023/08/12 07:17:02;;;;;;;46.67;18.45;;;;;;;23.78;62.99;99668.13;4932839;29;20066;-89
2023/08/12 07:19:28;;;;;;;50.78;18.15;;;;;;;23.88;62.94;99672.94;4931258;29;20500;-90
2023/08/12 07:21:55;;;;;;;35.90;19.02;;;;;;;24.00;61.49;99678.16;4934186;29;20040;-90
2023/08/12 07:24:21;;;;;;;47.75;23.65;;;;;;;24.04;62.18;99672.56;4915982;29;20032;-89
2023/08/12 07:26:57;;;;;;;35.78;16.95;;;;;;;24.02;61.13;99666.59;4908264;29;20044;-90
2023/08/12 07:29:29;;;;;;;47.63;22.92;;;;;;;23.99;61.94;99657.00;4918490;29;20027;-93
2023/08/12 07:32:01;;;;;;;45.78;23.27;;;;;;;24.19;61.33;99684.59;4925541;29;20059;-88
2023/08/12 07:34:31;;;;;;;63.05;21.83;;;;;;;24.03;61.89;99662.59;4932218;29;20071;-91
2023/08/12 07:36:57;;;;;;;66.68;23.80;;;;;;;23.98;61.84;99658.22;4925672;29;20040;-92
2023/08/12 07:39:26;;;;;;;45.53;20.85;;;;;;;23.98;61.54;99672.19;5044127;23;20051;-92
2023/08/12 07:41:52;;;;;;;33.47;16.90;;;;;;;24.10;61.21;99691.34;4915356;29;20044;-90
2023/08/12 07:44:19;;;;;;;49.22;18.70;;;;;;;24.11;61.46;99706.13;4915682;29;20124;-90
2023/08/12 07:46:49;;;;;;;42.88;18.88;;;;;;;23.90;61.83;99670.53;4917534;29;20058;-93
2023/08/12 07:49:39;;;;;;;53.85;18.42;;;;;;;23.84;62.13;99681.31;4915723;29;20035;-91
2023/08/12 07:52:33;;;;;;;52.70;18.67;;;;;;;23.96;63.61;99712.84;4919380;29;20621;-90
2023/08/12 07:55:03;;;;;;;47.53;19.23;;;;;;;23.75;65.48;99700.41;4902590;29;20159;-90
2023/08/12 07:57:37;;;;;;;52.78;18.90;;;;;;;23.79;65.85;99692.84;4920495;29;20058;-90
2023/08/12 08:00:11;;;;;;;60.90;20.92;;;;;;;23.68;65.14;99684.44;4951318;29;20047;-89
2023/08/12 08:02:58;;;;;;;66.55;24.90;;;;;;;23.51;64.73;99660.03;4887924;29;20067;-90
2023/08/12 08:05:24;;;;;;;49.92;24.02;;;;;;;23.38;64.79;99655.97;4902783;29;20047;-91
2023/08/12 08:07:54;;;;;;;55.92;26.60;;;;;;;23.37;65.13;99662.72;4915867;29;20052;-89
2023/08/12 08:10:27;;;;;;;48.25;26.42;;;;;;;23.36;68.23;99708.56;4918690;29;20417;-89
2023/08/12 08:12:55;;;;;;;52.75;24.10;;;;;;;23.32;70.09;99724.50;4912326;29;20063;-88
2023/08/12 08:15:21;;;;;;;51.03;24.65;;;;;;;23.17;70.04;99698.47;4941304;29;20090;-91
2023/08/12 08:17:52;;;;;;;56.58;23.75;;;;;;;23.29;69.19;99705.75;4901308;29;20043;-89
2023/08/12 08:20:19;;;;;;;39.40;21.90;;;;;;;23.19;68.23;99694.13;4912836;29;20198;-91
2023/08/12 08:22:47;;;;;;;43.95;21.88;;;;;;;23.20;67.59;99683.75;4923527;29;20040;-89
2023/08/12 08:25:14;;;;;;;41.80;22.40;;;;;;;23.24;68.01;99695.72;4933052;29;20036;-89
2023/08/12 08:27:51;;;;;;;52.40;25.92;;;;;;;23.13;68.02;99694.88;4935852;29;20056;-89
2023/08/12 08:30:22;;;;;;;58.15;28.80;;;;;;;23.25;69.00;99714.09;4935535;29;20239;-90
2023/08/12 08:32:49;;;;;;;52.42;25.75;;;;;;;23.08;70.28;99714.75;4918973;29;20028;-90
2023/08/12 08:35:15;;;;;;;43.80;23.92;;;;;;;23.23;69.73;99722.03;4901399;29;20049;-86
2023/08/12 08:37:42;;;;;;;41.88;22.75;;;;;;;23.37;70.16;99729.69;4916419;29;20092;-89
2023/08/12 08:40:09;;;;;;;37.53;22.08;;;;;;;23.42;69.29;99720.97;4914458;29;20040;-88
2023/08/12 08:42:37;;;;;;;50.20;23.83;;;;;;;23.59;68.30;99727.81;4911704;29;20052;-87
2023/08/12 08:45:12;;;;;;;44.17;21.67;;;;;;;23.52;68.08;99705.47;4928397;29;20043;-89
2023/08/12 08:47:42;;;;;;;41.85;21.30;;;;;;;23.58;67.36;99696.34;4950317;29;20409;-87
2023/08/12 08:50:10;;;;;;;41.20;21.30;;;;;;;23.71;66.56;99718.31;4911892;29;20044;-87
2023/08/12 08:52:39;;;;;;;61.90;22.63;;;;;;;23.68;66.94;99717.13;4915285;29;20063;-88
2023/08/12 08:55:06;;;;;;;40.45;21.70;;;;;;;23.80;66.73;99727.94;4919533;29;20043;-88
2023/08/12 08:57:32;;;;;;;35.45;20.25;;;;;;;23.83;66.40;99713.19;4918051;29;20277;-86
2023/08/12 08:59:58;;;;;;;45.40;20.35;;;;;;;23.82;65.84;99708.03;4929536;29;20115;-87
2023/08/12 09:02:26;;;;;;;40.70;21.10;;;;;;;23.88;65.53;99706.47;4930264;29;20040;-86
2023/08/12 09:05:20;;;;;;;36.83;19.95;;;;;;;23.94;65.67;99724.44;4933647;29;20086;-88
2023/08/12 09:08:25;;;;;;;35.22;20.35;;;;;;;23.83;65.70;99710.41;4922255;29;20070;-86
2023/08/12 09:10:52;;;;;;;41.40;20.90;;;;;;;23.71;66.34;99718.31;4914692;29;20458;-88
2023/08/12 09:13:18;;;;;;;40.20;20.25;;;;;;;23.59;64.30;99706.28;4925833;29;20050;-88
2023/08/12 09:15:48;;;;;;;40.03;21.20;;;;;;;23.55;66.02;99727.00;4938114;29;20056;-89
2023/08/12 09:18:17;;;;;;;34.85;19.33;;;;;;;23.61;66.27;99751.38;4946067;29;20032;-90
2023/08/12 09:20:44;;;;;;;36.25;19.50;;;;;;;23.57;65.64;99753.31;4902815;29;20055;-88
2023/08/12 09:23:12;;;;;;;59.67;20.00;;;;;;;23.73;66.29;99778.16;4933177;29;20048;-89
2023/08/12 09:25:45;;;;;;;42.10;20.20;;;;;;;23.56;65.73;99746.16;4916942;29;20249;-86
2023/08/12 09:28:11;;;;;;;34.58;20.55;;;;;;;23.57;66.08;99741.34;4930050;29;20048;-88
2023/08/12 09:30:54;;;;;;;43.88;21.65;;;;;;;23.53;66.79;99741.34;4923484;29;20048;-89
2023/08/12 09:34:06;;;;;;;50.53;21.85;;;;;;;23.29;66.03;99691.78;4898928;29;20045;-89
2023/08/12 09:36:33;;;;;;;36.80;20.48;;;;;;;23.16;67.50;99680.94;4897538;29;20044;-88
2023/08/12 09:39:10;;;;;;;39.72;21.13;;;;;;;23.17;67.51;99671.38;4915746;29;20060;-85
2023/08/12 09:41:38;;;;;;;30.73;19.38;;;;;;;23.30;66.58;99685.81;4913810;29;20116;-87
2023/08/12 09:44:06;;;;;;;36.10;20.80;;;;;;;23.36;67.05;99711.34;4921624;29;20031;-89
2023/08/12 09:46:38;;;;;;;38.13;21.25;;;;;;;23.19;67.89;99682.16;4900379;29;20044;-85
2023/08/12 09:49:04;;;;;;;39.75;20.40;;;;;;;23.26;67.34;99698.16;4926290;29;20047;-85
2023/08/12 09:51:37;;;;;;;32.95;20.38;;;;;;;23.30;67.46;99701.75;4946250;29;20576;-87
2023/08/12 09:54:04;;;;;;;32.38;19.08;;;;;;;23.18;67.56;99688.94;4915304;29;20043;-89
2023/08/12 09:56:36;;;;;;;31.88;19.50;;;;;;;23.01;67.68;99675.66;4932837;29;20413;-89
2023/08/12 09:59:47;;;;;;;37.97;19.88;;;;;;;22.96;68.52;99683.22;4939432;29;20099;-88
2023/08/12 10:02:41;;;;;;;29.35;18.88;;;;;;;22.94;68.24;99688.38;4933722;29;20467;-88
2023/08/12 10:05:20;;;;;;;40.10;24.08;;;;;;;23.08;69.14;99711.97;4907957;29;20075;-88
2023/08/12 10:07:48;;;;;;;40.95;22.55;;;;;;;23.00;69.41;99718.69;5015275;23;20027;-87
2023/08/12 10:10:14;;;;;;;45.25;23.77;;;;;;;22.91;70.62;99714.22;4919352;29;20425;-91
2023/08/12 10:12:45;;;;;;;36.50;23.20;;;;;;;22.94;71.16;99724.59;4941992;28;20039;-88
2023/08/12 10:15:22;;;;;;;44.93;23.13;;;;;;;22.84;71.13;99705.00;4949365;28;20051;-87
2023/08/12 10:18:31;;;;;;;39.53;22.77;;;;;;;22.79;71.07;99708.16;4940989;23;20056;-87
2023/08/12 10:21:11;;;;;;;49.50;23.23;;;;;;;22.71;72.08;99701.69;4931281;29;20058;-87
2023/08/12 10:23:42;;;;;;;39.05;22.33;;;;;;;22.68;71.45;99708.88;4921327;29;20044;-88
2023/08/12 10:29:00;;;;;;;34.10;21.67;;;;;;;22.73;72.11;99722.44;5248847;23;20099;-86
2023/08/12 10:34:23;;;;;;;42.90;23.45;;;;;;;22.77;72.88;99718.88;4773215;23;20083;-86
2023/08/12 10:36:58;;;;;;;52.75;26.42;;;;;;;22.66;72.94;99704.84;4898052;29;20048;-85
2023/08/12 10:39:31;;;;;;;40.05;23.10;;;;;;;22.68;72.93;99711.66;4992790;23;20062;-88
2023/08/12 10:42:02;;;;;;;37.75;21.98;;;;;;;22.53;72.99;99676.47;5121905;23;20099;-87
2023/08/12 10:44:51;;;;;;;40.60;23.17;;;;;;;22.63;72.72;99692.47;4882447;29;20040;-87
2023/08/12 10:47:18;;;;;;;36.42;22.77;;;;;;;22.67;73.75;99706.44;4907652;29;20049;-87
2023/08/12 10:49:58;;;;;;;40.85;26.42;;;;;;;22.68;74.88;99720.00;4864090;29;20044;-87
2023/08/12 10:52:37;;;;;;;48.33;27.55;;;;;;;22.63;75.11;99725.13;4914995;29;20044;-88
2023/08/12 10:55:53;;;;;;;46.92;27.20;;;;;;;22.61;74.64;99742.22;4919915;29;20075;-87
2023/08/12 10:58:45;;;;;;;47.55;26.33;;;;;;;22.39;76.52;99726.50;4931872;29;20095;-87
2023/08/12 11:01:21;;;;;;;59.42;28.42;;;;;;;22.50;76.31;99753.28;4910289;29;20044;-88
2023/08/12 11:03:53;;;;;;;47.45;25.58;;;;;;;22.55;76.06;99765.25;4920706;29;20071;-87
2023/08/12 11:06:20;;;;;;;44.25;25.35;;;;;;;22.48;75.62;99744.50;4918678;29;20049;-87
2023/08/12 11:08:51;;;;;;;44.92;26.02;;;;;;;22.44;75.66;99737.28;4924585;29;20037;-89
2023/08/12 11:11:24;;;;;;;41.85;24.38;;;;;;;22.66;76.94;99778.09;4902461;29;20080;-88
2023/08/12 11:13:59;;;;;;;86.68;37.30;;;;;;;22.61;76.70;99791.56;4914207;29;20103;-87
2023/08/12 11:16:40;;;;;;;66.18;30.80;;;;;;;22.47;78.28;99781.88;4921980;29;20044;-89
2023/08/12 11:19:25;;;;;;;46.38;25.92;;;;;;;22.40;76.38;99792.97;4923016;29;20036;-90
2023/08/12 11:21:53;;;;;;;42.88;23.27;;;;;;;22.24;76.22;99786.81;4902747;29;20131;-87
2023/08/12 11:24:21;;;;;;;46.72;24.20;;;;;;;22.02;78.04;99761.47;4898560;29;20172;-86
2023/08/12 11:26:49;;;;;;;40.63;23.50;;;;;;;21.99;78.67;99747.53;4917391;29;20045;-86
2023/08/12 11:29:17;;;;;;;44.75;23.10;;;;;;;22.15;78.76;99773.19;4871897;29;20402;-88
2023/08/12 11:31:46;;;;;;;46.45;24.15;;;;;;;22.10;79.50;99765.13;4880246;29;20049;-85
2023/08/12 11:34:12;;;;;;;40.22;24.23;;;;;;;22.20;78.98;99760.91;4895496;29;20044;-85
2023/08/12 11:36:39;;;;;;;40.50;26.05;;;;;;;22.17;79.13;99764.44;4910829;29;20068;-85
2023/08/12 11:39:06;;;;;;;44.13;25.33;;;;;;;22.11;79.18;99747.25;4902007;29;20084;-86
2023/08/12 11:41:34;;;;;;;41.47;25.52;;;;;;;21.78;79.60;99695.16;4897239;29;20047;-85
2023/08/12 11:44:00;;;;;;;45.63;24.52;;;;;;;22.01;79.60;99720.09;4871985;29;20059;-86
2023/08/12 11:46:26;;;;;;;43.92;24.20;;;;;;;21.91;79.60;99692.94;4886314;29;20052;-85
2023/08/12 11:48:52;;;;;;;52.70;26.67;;;;;;;21.93;80.19;99718.41;4875802;29;20203;-86
2023/08/12 11:51:22;;;;;;;52.92;26.70;;;;;;;22.06;80.32;99722.53;4890986;29;20858;-85
2023/08/12 11:53:48;;;;;;;42.13;25.60;;;;;;;21.73;80.38;99682.41;4894306;29;20083;-86
2023/08/12 11:56:15;;;;;;;51.67;27.00;;;;;;;22.00;80.68;99726.84;4906684;29;20041;-85
2023/08/12 11:58:41;;;;;;;54.40;27.73;;;;;;;22.01;80.79;99729.22;4904925;29;20086;-84
2023/08/12 12:01:10;;;;;;;44.85;25.60;;;;;;;21.79;82.14;99714.28;4908223;29;20053;-86
2023/08/12 12:03:36;;;;;;;50.28;27.60;;;;;;;21.91;82.11;99737.47;4902164;29;20119;-85
2023/08/12 12:06:02;;;;;;;52.55;28.15;;;;;;;21.83;81.97;99714.31;4892827;29;20056;-88
2023/08/12 12:08:31;;;;;;;53.63;26.63;;;;;;;21.87;81.79;99725.50;4870809;29;20041;-87
2023/08/12 12:11:05;;;;;;;47.97;27.55;;;;;;;21.79;82.00;99710.69;4888358;29;20040;-86
2023/08/12 12:13:31;;;;;;;61.28;28.73;;;;;;;21.67;82.41;99695.03;4908322;29;20044;-86
2023/08/12 12:15:57;;;;;;;53.20;28.50;;;;;;;21.71;82.45;99707.00;4918024;29;20043;-85
2023/08/12 12:18:26;;;;;;;53.40;28.48;;;;;;;21.65;82.96;99668.75;4910275;29;20080;-87
2023/08/12 12:20:57;;;;;;;45.35;24.92;;;;;;;21.58;83.08;99661.94;4890000;29;20080;-86
2023/08/12 12:23:31;;;;;;;45.10;24.33;;;;;;;21.54;83.37;99657.50;4874225;29;20069;-87
2023/08/12 12:26:02;;;;;;;40.45;23.27;;;;;;;21.28;83.41;99627.75;4871746;29;20108;-87
2023/08/12 12:28:28;;;;;;;48.70;22.90;;;;;;;21.32;83.57;99604.38;4903270;29;20889;-88
2023/08/12 12:30:54;;;;;;;40.85;22.90;;;;;;;21.16;84.38;99614.91;4902063;29;20047;-87
2023/08/12 12:33:22;;;;;;;32.70;20.67;;;;;;;20.94;84.59;99569.31;4891782;29;20089;-87
2023/08/12 12:35:51;;;;;;;34.45;21.17;;;;;;;21.00;84.97;99561.47;4888048;29;20864;-87
2023/08/12 12:38:22;;;;;;;41.63;20.60;;;;;;;20.97;85.66;99540.78;4890023;29;20507;-89
2023/08/12 12:44:20;;;;;;;35.00;20.45;;;;;;;20.93;86.59;99600.28;4902035;29;20045;-86
2023/08/12 12:46:48;;;;;;;40.55;23.13;;;;;;;21.08;86.09;99621.53;4855912;29;20060;-90
2023/08/12 12:49:22;;;;;;;44.05;23.85;;;;;;;20.91;85.97;99608.97;4860744;29;20052;-87
2023/08/12 12:51:51;;;;;;;34.60;18.98;;;;;;;21.13;85.24;99648.22;4879529;29;20612;-86
2023/08/12 12:54:19;;;;;;;37.97;22.77;;;;;;;21.11;85.21;99632.69;4884205;29;20029;-88
2023/08/12 12:56:47;;;;;;;49.78;25.60;;;;;;;21.00;84.64;99612.28;4868662;29;20023;-90
2023/08/12 12:59:17;;;;;;;47.90;26.27;;;;;;;21.25;84.95;99631.28;4896946;29;20041;-92
2023/08/12 13:01:56;;;;;;;71.78;39.63;;;;;;;21.01;84.86;99596.41;4872190;29;20033;-94
2023/08/12 13:04:24;;;;;;;54.03;32.30;;;;;;;21.10;85.61;99622.75;4900185;29;20052;-93
2023/08/12 13:06:51;;;;;;;47.85;25.80;;;;;;;21.03;85.30;99616.31;4877402;29;20036;-91
2023/08/12 13:09:19;;;;;;;40.42;20.58;;;;;;;21.07;85.36;99611.59;4894827;29;20056;-93
2023/08/12 13:11:51;;;;;;;34.72;20.65;;;;;;;21.23;85.47;99636.44;4882446;29;20045;-89
2023/08/12 13:14:20;;;;;;;39.58;20.30;;;;;;;21.13;85.79;99626.78;4881849;29;20055;-91
2023/08/12 13:16:47;;;;;;;41.03;19.90;;;;;;;21.16;86.05;99631.56;4879767;29;20076;-88
2023/08/12 13:19:20;;;;;;;33.28;19.98;;;;;;;21.25;86.07;99639.63;4891075;29;20076;-88
2023/08/12 13:21:48;;;;;;;35.25;20.38;;;;;;;21.38;86.14;99649.34;4870423;29;20048;-90
2023/08/12 13:24:15;;;;;;;42.53;22.52;;;;;;;21.38;86.25;99637.44;4871272;29;20041;-90
2023/08/12 13:26:41;;;;;;;;;;;;;;;21.52;86.86;99645.94;4886956;29;20044;-89
2023/08/12 13:29:13;;;;;;;47.38;23.85;;;;;;;21.56;87.32;99644.03;4892604;29;19937;-91
2023/08/12 13:31:47;;;;;;;40.38;21.67;;;;;;;21.42;86.74;99596.56;4872039;29;20037;-90
2023/08/12 13:34:17;;;;;;;41.38;22.55;;;;;;;21.40;86.40;99596.16;4874854;29;20036;-94
2023/08/12 13:36:46;;;;;;;43.25;21.75;;;;;;;21.52;85.84;99610.63;4854459;29;20048;-91
2023/08/12 13:39:13;;;;;;;41.65;22.83;;;;;;;21.48;85.73;99592.25;4875702;29;20060;-91
2023/08/12 14:47:30;;;;;;;32.08;19.58;;;;;;;22.72;80.04;99556.41;5178015;23;20039;-89
2023/08/12 14:49:56;;;;;;;35.10;19.10;;;;;;;22.61;79.16;99538.78;4887582;29;20059;-90
2023/08/12 14:52:30;;;;;;;31.02;19.08;;;;;;;22.80;78.61;99568.38;4902180;29;20133;-89
2023/08/12 14:54:57;;;;;;;30.17;17.38;;;;;;;22.96;77.74;99562.53;4880241;29;20053;-89
2023/08/12 14:57:30;;;;;;;32.45;17.20;;;;;;;23.02;76.68;99555.41;4888323;29;20037;-89
2023/08/12 14:59:58;;;;;;;75.38;43.72;;;;;;;23.08;77.28;99531.53;4884797;29;20056;-90
2023/08/12 15:02:27;;;;;;;41.78;22.83;;;;;;;23.41;75.49;99549.16;4885104;29;20056;-91
2023/08/12 15:04:56;;;;;;;39.53;22.02;;;;;;;23.54;74.51;99547.63;4894377;29;20509;-85
2023/08/12 15:07:22;;;;;;;30.27;18.75;;;;;;;23.58;73.88;99530.88;4915409;29;20031;-89
2023/08/12 15:09:51;;;;;;;45.58;20.73;;;;;;;23.55;72.90;99532.47;4909270;29;20092;-89
2023/08/12 15:12:20;;;;;;;41.17;21.85;;;;;;;23.61;72.85;99528.09;4894014;29;20044;-88
2023/08/12 15:14:48;;;;;;;54.20;21.83;;;;;;;23.85;71.50;99539.72;4911498;29;20041;-89
2023/08/12 15:17:14;;;;;;;40.75;21.55;;;;;;;23.87;70.78;99537.31;4897271;29;20130;-89
2023/08/12 15:19:42;;;;;;;37.65;21.25;;;;;;;23.60;71.53;99506.16;4895420;29;20052;-90
2023/08/12 15:22:10;;;;;;;23.73;14.68;;;;;;;24.13;70.48;99534.13;4917845;29;20056;-89
2023/08/12 15:24:43;;;;;;;22.45;12.60;;;;;;;23.88;70.91;99525.75;4922464;29;20052;-89
2023/08/12 15:27:11;;;;;;;28.55;13.70;;;;;;;23.71;70.96;99540.50;4917896;29;20044;-89
2023/08/12 15:29:42;;;;;;;25.48;14.00;;;;;;;23.16;71.44;99501.66;4936191;29;20052;-89
2023/08/12 15:32:12;;;;;;;21.77;13.15;;;;;;;23.00;71.85;99518.72;4915861;29;20130;-89
2023/08/12 15:34:40;;;;;;;32.05;14.77;;;;;;;23.27;72.66;99563.06;4871303;29;20083;-87
2023/08/12 15:37:08;;;;;;;22.00;13.18;;;;;;;23.05;72.81;99546.25;4886738;29;20052;-89
2023/08/12 15:39:56;;;;;;;45.22;24.10;;;;;;;22.95;72.89;99542.22;4901923;29;20076;-88
2023/08/12 15:42:23;;;;;;;45.47;28.70;;;;;;;22.72;73.73;99520.16;4896162;29;20047;-89
2023/08/12 15:45:13;;;;;;;35.70;20.90;;;;;;;22.56;74.51;99514.09;4894675;29;20059;-88
2023/08/12 15:47:41;;;;;;;34.70;21.13;;;;;;;22.45;74.38;99516.84;4874720;29;20052;-89
2023/08/12 15:50:32;;;;;;;30.45;19.42;;;;;;;22.79;76.09;99582.72;4904267;29;20588;-89
2023/08/12 15:53:05;;;;;;;36.10;20.15;;;;;;;22.49;76.60;99551.06;4904771;29;20036;-90
2023/08/12 15:55:58;;;;;;;35.17;19.67;;;;;;;22.53;77.02;99556.69;5099437;23;20047;-90
2023/08/12 15:58:26;;;;;;;39.53;22.52;;;;;;;22.74;76.85;99567.16;4889323;29;20041;-89
2023/08/12 16:04:07;;;;;;;45.60;22.90;;;;;;;22.57;77.31;99531.63;5177066;23;20080;-90
2023/08/12 16:06:44;;;;;;;42.35;24.23;;;;;;;22.75;78.36;99571.56;5166575;23;20099;-91
2023/08/12 16:09:10;;;;;;;40.13;23.00;;;;;;;22.69;77.55;99554.38;5009932;23;20026;-87
2023/08/12 16:11:41;;;;;;;38.67;23.95;;;;;;;22.40;78.13;99517.19;4923309;29;20103;-88
2023/08/12 16:14:09;;;;;;;46.85;24.15;;;;;;;22.76;77.89;99570.34;4913668;29;20048;-89
2023/08/12 16:16:37;;;;;;;46.63;23.17;;;;;;;22.44;77.79;99515.22;4890581;29;20044;-89
2023/08/12 16:19:27;;;;;;;41.03;22.85;;;;;;;22.73;78.49;99566.34;4934395;29;20024;-91
2023/08/12 16:22:38;;;;;;;42.90;20.60;;;;;;;22.72;78.64;99558.41;4942865;28;20048;-91
2023/08/12 16:31:15;;;;;;;54.03;27.50;;;;;;;22.63;78.70;99542.00;4984909;23;20032;-86
2023/08/12 16:33:42;;;;;;;45.45;22.48;;;;;;;22.51;78.80;99534.75;4874263;29;20092;-87
2023/08/12 16:36:10;;;;;;;42.65;24.35;;;;;;;22.63;78.63;99544.00;4908500;29;20036;-88
2023/08/12 16:38:53;;;;;;;45.92;23.73;;;;;;;22.63;78.65;99547.59;4902409;29;20068;-88
2023/08/12 16:42:12;;;;;;;40.20;23.58;;;;;;;22.58;78.39;99559.09;4926303;29;20052;-86
2023/08/12 16:44:40;;;;;;;51.92;24.83;;;;;;;22.57;78.38;99546.34;4901532;29;20076;-89
2023/08/12 16:47:30;;;;;;;41.50;24.90;;;;;;;22.56;78.48;99550.31;4888137;29;20104;-89
2023/08/12 16:50:00;;;;;;;42.47;23.23;;;;;;;22.59;78.54;99568.25;4862675;29;20054;-90
2023/08/12 16:52:27;;;;;;;42.33;23.27;;;;;;;22.51;78.85;99553.47;4863994;29;20041;-87
2023/08/12 16:54:53;;;;;;;39.08;21.98;;;;;;;22.57;78.52;99563.06;4880412;29;20038;-88
2023/08/12 16:57:21;;;;;;;47.38;23.63;;;;;;;22.59;78.89;99571.84;4865462;29;20026;-91
2023/08/12 17:00:06;;;;;;;49.30;23.73;;;;;;;22.61;78.69;99569.44;4848612;29;20046;-91
2023/08/12 17:02:56;;;;;;;35.92;20.60;;;;;;;22.58;78.74;99567.44;4868427;29;20045;-89
2023/08/12 17:05:28;;;;;;;45.17;21.52;;;;;;;22.52;78.96;99572.59;4880152;29;20041;-93
2023/08/12 17:07:57;;;;;;;39.72;23.67;;;;;;;22.52;78.29;99586.53;4862828;29;20065;-89
2023/08/12 17:10:32;;;;;;;42.92;23.58;;;;;;;22.47;77.69;99575.72;4874340;29;20105;-90
2023/08/12 17:13:00;;;;;;;40.75;25.05;;;;;;;22.52;77.88;99577.38;4861803;29;20038;-92
2023/08/12 17:15:29;;;;;;;51.00;24.88;;;;;;;22.47;77.44;99570.16;4877113;29;20471;-91
2023/08/12 17:17:55;;;;;;;44.97;25.60;;;;;;;22.48;77.50;99565.38;4860460;29;20038;-88
2023/08/12 17:20:24;;;;;;;52.30;27.33;;;;;;;22.33;77.66;99552.56;4842837;29;20135;-87
2023/08/12 17:22:54;;;;;;;57.10;30.42;;;;;;;22.28;78.15;99553.69;4843992;29;20567;-86
2023/08/12 17:25:22;;;;;;;46.15;27.77;;;;;;;22.42;78.08;99587.25;4846650;29;20046;-86
2023/08/12 17:27:50;;;;;;;103.95;61.30;;;;;;;22.30;78.80;99587.53;4834705;29;20114;-87
2023/08/12 17:30:20;;;;;;;100.03;57.08;;;;;;;22.05;79.54;99548.31;4841420;29;20103;-88
2023/08/12 17:32:48;;;;;;;71.72;39.22;;;;;;;22.06;79.56;99563.84;4848482;29;20098;-88
2023/08/12 17:35:32;;;;;;;61.10;35.58;;;;;;;22.01;79.63;99558.63;4841487;29;20064;-88
2023/08/12 17:37:59;;;;;;;58.15;31.77;;;;;;;22.07;79.30;99570.22;4839348;29;20057;-88
2023/08/12 17:40:32;;;;;;;44.60;25.75;;;;;;;22.10;78.71;99570.25;4827148;29;20079;-86
2023/08/12 17:43:19;;;;;;;44.97;24.55;;;;;;;22.01;79.27;99566.97;4840907;29;20079;-88
2023/08/12 17:45:50;;;;;;;45.13;22.58;;;;;;;22.05;79.40;99578.94;4884107;29;20053;-88
2023/08/12 17:48:18;;;;;;;47.03;24.15;;;;;;;22.02;79.41;99571.38;4895068;29;20058;-87
2023/08/12 17:51:02;;;;;;;50.58;23.02;;;;;;;21.88;79.77;99554.53;4918654;29;20127;-89
2023/08/12 17:53:30;;;;;;;42.42;23.42;;;;;;;21.88;79.88;99566.44;4895674;29;20044;-88
2023/08/12 17:55:57;;;;;;;39.85;22.77;;;;;;;21.84;80.34;99571.19;4895053;29;20110;-89
2023/08/12 17:58:28;;;;;;;46.63;25.65;;;;;;;21.83;80.43;99579.94;4886161;29;20507;-87
2023/08/12 18:01:04;;;;;;;50.78;28.58;;;;;;;21.63;80.52;99549.53;4911005;29;20051;-89
2023/08/12 18:03:30;;;;;;;43.53;26.20;;;;;;;21.71;80.86;99570.66;4884168;29;20021;-88
2023/08/12 18:06:04;;;;;;;47.40;24.02;;;;;;;21.68;81.26;99563.06;4935911;29;20151;-86
2023/08/12 18:08:59;;;;;;;38.85;22.48;;;;;;;21.70;81.56;99565.50;4929226;29;20042;-86
2023/08/12 18:11:30;;;;;;;37.15;23.02;;;;;;;21.71;81.56;99561.50;4934534;29;20072;-88
2023/08/12 18:13:56;;;;;;;56.55;27.40;;;;;;;21.59;81.41;99551.47;4875710;29;20048;-88
2023/08/12 18:16:22;;;;;;;56.50;29.13;;;;;;;21.51;81.67;99538.66;4902104;29;20103;-86